createdAt,value
2017-10-07T00:00:38.284Z,1021.13
2017-10-07T00:02:01.531Z,1021.13
2017-10-07T00:03:02.373Z,1021.12
2017-10-07T00:04:25.455Z,1021.14
2017-10-07T00:05:26.497Z,1021.12
2017-10-07T00:07:33.484Z,1021.11
2017-10-07T00:08:34.156Z,1021.09
2017-10-07T00:10:18.616Z,1021.09
2017-10-07T00:12:04.588Z,1021.15
2017-10-07T00:13:05.324Z,1021.18
2017-10-07T00:14:05.057Z,1021.14
2017-10-07T00:15:27.592Z,1021.13
2017-10-07T00:17:36.450Z,1021.11
2017-10-07T00:19:44.660Z,1021.08
2017-10-07T00:20:45.352Z,1021.09
2017-10-07T00:22:30.667Z,1021.11
2017-10-07T00:23:31.368Z,1021.09
2017-10-07T00:24:53.531Z,1021.07
2017-10-07T00:25:54.271Z,1021.05
2017-10-07T00:28:01.150Z,1021.04
2017-10-07T00:29:25.317Z,1021.03
2017-10-07T00:31:12.340Z,1021.05
2017-10-07T00:32:12.004Z,1021.00
2017-10-07T00:33:35.272Z,1020.93
2017-10-07T00:34:35.708Z,1020.94
2017-10-07T00:35:35.311Z,1020.93
2017-10-07T00:37:21.656Z,1020.89
2017-10-07T00:38:22.000Z,1020.91
2017-10-07T00:39:21.410Z,1020.93
2017-10-07T00:41:51.781Z,1020.91
2017-10-07T00:42:52.514Z,1020.84
2017-10-07T00:43:52.944Z,1020.87
2017-10-07T00:45:37.521Z,1020.85
2017-10-07T00:48:10.340Z,1020.77
2017-10-07T00:49:10.982Z,1020.81
2017-10-07T00:50:10.225Z,1020.83
2017-10-07T00:51:10.315Z,1020.81
2017-10-07T00:52:34.640Z,1020.76
2017-10-07T00:53:35.169Z,1020.78
2017-10-07T00:54:34.642Z,1020.78
2017-10-07T00:55:57.241Z,1020.71
2017-10-07T00:56:57.815Z,1020.78
2017-10-07T00:58:22.436Z,1020.72
2017-10-07T00:59:21.406Z,1020.74
2017-10-07T01:00:44.329Z,1020.70
2017-10-07T01:01:44.778Z,1020.68
2017-10-07T01:03:08.731Z,1020.65
2017-10-07T01:04:53.583Z,1020.69
2017-10-07T01:05:53.786Z,1020.68
2017-10-07T01:08:02.060Z,1020.67
2017-10-07T01:09:05.177Z,1020.65
2017-10-07T01:10:03.123Z,1020.67
2017-10-07T01:11:48.475Z,1020.54
2017-10-07T01:12:49.368Z,1020.60
2017-10-07T01:13:48.840Z,1020.58
2017-10-07T01:14:48.906Z,1020.62
2017-10-07T01:15:48.292Z,1020.55
2017-10-07T01:16:49.033Z,1020.53
2017-10-07T01:17:48.710Z,1020.51
2017-10-07T01:18:49.366Z,1020.54
2017-10-07T01:20:11.288Z,1020.48
2017-10-07T01:21:12.128Z,1020.47
2017-10-07T01:22:34.572Z,1020.44
2017-10-07T01:23:35.264Z,1020.44
2017-10-07T01:24:35.710Z,1020.41
2017-10-07T01:25:57.775Z,1020.44
2017-10-07T01:27:20.672Z,1020.42
2017-10-07T01:28:43.694Z,1020.39
2017-10-07T01:30:07.298Z,1020.40
2017-10-07T01:31:09.283Z,1020.36
2017-10-07T01:32:07.728Z,1020.35
2017-10-07T01:33:07.402Z,1020.37
2017-10-07T01:34:55.116Z,1020.35
2017-10-07T01:37:03.456Z,1020.37
2017-10-07T01:38:04.091Z,1020.36
2017-10-07T01:40:56.236Z,1020.43
2017-10-07T01:42:42.836Z,1020.35
2017-10-07T01:43:43.855Z,1020.39
2017-10-07T01:45:28.374Z,1020.35
2017-10-07T01:46:52.385Z,1020.37
2017-10-07T01:47:54.975Z,1020.36
2017-10-07T01:49:15.050Z,1020.35
2017-10-07T01:50:15.242Z,1020.31
2017-10-07T01:51:15.720Z,1020.33
2017-10-07T01:52:37.922Z,1020.30
2017-10-07T01:53:38.676Z,1020.40
2017-10-07T01:54:38.119Z,1020.32
2017-10-07T01:57:08.351Z,1020.28
2017-10-07T01:58:09.021Z,1020.23
2017-10-07T01:59:10.024Z,1020.26
2017-10-07T02:00:31.881Z,1020.22
2017-10-07T02:01:32.604Z,1020.24
2017-10-07T02:02:54.462Z,1020.22
2017-10-07T02:03:55.950Z,1020.24
2017-10-07T02:04:55.679Z,1020.25
2017-10-07T02:05:54.895Z,1020.19
2017-10-07T02:06:55.347Z,1020.24
2017-10-07T02:07:55.214Z,1020.25
2017-10-07T02:09:17.608Z,1020.23
2017-10-07T02:11:04.348Z,1020.23
2017-10-07T02:12:27.143Z,1020.21
2017-10-07T02:13:27.864Z,1020.24
2017-10-07T02:14:26.876Z,1020.20
2017-10-07T02:15:29.594Z,1020.25
2017-10-07T02:16:27.396Z,1020.22
2017-10-07T02:17:49.990Z,1020.21
2017-10-07T02:18:50.230Z,1020.27
2017-10-07T02:19:50.935Z,1020.27
2017-10-07T02:20:50.366Z,1020.30
2017-10-07T02:21:50.609Z,1020.32
2017-10-07T02:22:49.687Z,1020.30
2017-10-07T02:23:50.109Z,1020.25
2017-10-07T02:24:50.407Z,1020.29
2017-10-07T02:25:51.365Z,1020.24
2017-10-07T02:27:57.936Z,1020.32
2017-10-07T02:28:58.096Z,1020.27
2017-10-07T02:30:43.496Z,1020.32
2017-10-07T02:31:43.670Z,1020.31
2017-10-07T02:33:06.640Z,1020.29
2017-10-07T02:34:07.431Z,1020.28
2017-10-07T02:35:06.424Z,1020.29
2017-10-07T02:36:29.212Z,1020.29
2017-10-07T02:37:30.371Z,1020.25
2017-10-07T02:38:52.181Z,1020.24
2017-10-07T02:39:53.762Z,1020.26
2017-10-07T02:40:53.532Z,1020.27
2017-10-07T02:41:52.650Z,1020.27
2017-10-07T02:42:53.619Z,1020.28
2017-10-07T02:43:52.824Z,1020.22
2017-10-07T02:44:52.946Z,1020.24
2017-10-07T02:46:15.403Z,1020.19
2017-10-07T02:47:15.873Z,1020.25
2017-10-07T02:48:39.333Z,1020.21
2017-10-07T02:49:39.485Z,1020.21
2017-10-07T02:50:39.847Z,1020.13
2017-10-07T02:52:24.759Z,1020.17
2017-10-07T02:53:49.635Z,1020.10
2017-10-07T02:55:12.607Z,1020.13
2017-10-07T02:56:57.720Z,1020.06
2017-10-07T02:57:58.012Z,1020.09
2017-10-07T02:58:58.508Z,1020.12
2017-10-07T02:59:57.713Z,1020.14
2017-10-07T03:00:58.178Z,1020.11
2017-10-07T03:02:20.591Z,1020.11
2017-10-07T03:03:21.194Z,1020.12
2017-10-07T03:04:44.174Z,1020.04
2017-10-07T03:05:44.734Z,1020.05
2017-10-07T03:06:44.178Z,1020.07
2017-10-07T03:08:29.725Z,1020.02
2017-10-07T03:09:31.639Z,1020.01
2017-10-07T03:11:16.140Z,1020.00
2017-10-07T03:12:39.924Z,1019.99
2017-10-07T03:13:40.293Z,1019.99
2017-10-07T03:14:41.685Z,1019.95
2017-10-07T03:15:39.964Z,1019.91
2017-10-07T03:16:40.003Z,1019.94
2017-10-07T03:17:40.510Z,1019.91
2017-10-07T03:19:03.250Z,1019.93
2017-10-07T03:20:26.393Z,1019.92
2017-10-07T03:21:27.060Z,1019.85
2017-10-07T03:22:26.183Z,1019.91
2017-10-07T03:23:26.898Z,1019.90
2017-10-07T03:24:26.205Z,1019.91
2017-10-07T03:25:49.671Z,1019.88
2017-10-07T03:26:50.328Z,1019.91
2017-10-07T03:27:50.057Z,1019.90
2017-10-07T03:28:50.521Z,1019.88
2017-10-07T03:30:12.398Z,1019.91
2017-10-07T03:31:13.188Z,1019.87
2017-10-07T03:32:13.020Z,1019.86
2017-10-07T03:33:12.326Z,1019.85
2017-10-07T03:34:12.749Z,1019.83
2017-10-07T03:35:12.896Z,1019.80
2017-10-07T03:36:13.982Z,1019.78
2017-10-07T03:37:12.221Z,1019.74
2017-10-07T03:38:37.070Z,1019.74
2017-10-07T03:40:22.872Z,1019.73
2017-10-07T03:41:25.282Z,1019.74
2017-10-07T03:42:22.938Z,1019.72
2017-10-07T03:44:07.794Z,1019.65
2017-10-07T03:45:08.466Z,1019.68
2017-10-07T03:46:08.540Z,1019.69
2017-10-07T03:47:31.101Z,1019.60
2017-10-07T03:48:54.270Z,1019.65
2017-10-07T03:49:54.735Z,1019.66
2017-10-07T03:50:55.235Z,1019.64
2017-10-07T03:52:20.069Z,1019.62
2017-10-07T03:53:18.619Z,1019.60
2017-10-07T03:54:41.245Z,1019.63
2017-10-07T03:55:41.316Z,1019.60
2017-10-07T03:57:04.654Z,1019.71
2017-10-07T03:58:50.220Z,1019.69
2017-10-07T03:59:51.442Z,1019.70
2017-10-07T04:00:51.018Z,1019.68
2017-10-07T04:01:51.506Z,1019.69
2017-10-07T04:02:51.125Z,1019.69
2017-10-07T04:03:50.735Z,1019.70
2017-10-07T04:05:13.546Z,1019.64
2017-10-07T04:06:14.827Z,1019.70
2017-10-07T04:07:37.100Z,1019.68
2017-10-07T04:08:37.142Z,1019.65
2017-10-07T04:09:37.716Z,1019.66
2017-10-07T04:11:23.333Z,1019.58
2017-10-07T04:12:24.121Z,1019.58
2017-10-07T04:13:45.860Z,1019.53
2017-10-07T04:15:09.496Z,1019.49
2017-10-07T04:16:10.825Z,1019.50
2017-10-07T04:17:10.378Z,1019.50
2017-10-07T04:18:09.892Z,1019.52
2017-10-07T04:19:56.339Z,1019.52
2017-10-07T04:21:17.219Z,1019.53
2017-10-07T04:22:17.703Z,1019.53
2017-10-07T04:23:40.034Z,1019.62
2017-10-07T04:24:40.655Z,1019.56
2017-10-07T04:25:40.518Z,1019.55
2017-10-07T04:27:02.609Z,1019.57
2017-10-07T04:28:25.176Z,1019.51
2017-10-07T04:29:48.498Z,1019.52
2017-10-07T04:30:48.998Z,1019.55
2017-10-07T04:32:55.521Z,1019.51
2017-10-07T04:33:55.760Z,1019.49
2017-10-07T04:35:18.734Z,1019.44
2017-10-07T04:36:19.659Z,1019.43
2017-10-07T04:37:19.426Z,1019.43
2017-10-07T04:38:18.847Z,1019.40
2017-10-07T04:39:19.847Z,1019.40
2017-10-07T04:42:12.111Z,1019.45
2017-10-07T04:43:12.518Z,1019.45
2017-10-07T04:44:12.138Z,1019.49
2017-10-07T04:45:12.997Z,1019.48
2017-10-07T04:46:12.316Z,1019.48
2017-10-07T04:47:13.326Z,1019.47
2017-10-07T04:48:12.551Z,1019.52
2017-10-07T04:49:13.276Z,1019.49
2017-10-07T04:50:12.808Z,1019.49
2017-10-07T04:52:20.090Z,1019.49
2017-10-07T04:53:20.657Z,1019.48
2017-10-07T04:54:42.365Z,1019.46
2017-10-07T04:56:04.822Z,1019.40
2017-10-07T04:57:05.080Z,1019.41
2017-10-07T04:58:28.827Z,1019.34
2017-10-07T04:59:29.296Z,1019.38
2017-10-07T05:00:28.978Z,1019.38
2017-10-07T05:01:29.476Z,1019.35
2017-10-07T05:03:59.167Z,1019.33
2017-10-07T05:05:22.092Z,1019.32
2017-10-07T05:06:44.773Z,1019.35
2017-10-07T05:08:53.650Z,1019.30
2017-10-07T05:09:53.796Z,1019.26
2017-10-07T05:11:17.054Z,1019.29
2017-10-07T05:13:01.833Z,1019.32
2017-10-07T05:14:02.701Z,1019.23
2017-10-07T05:15:01.787Z,1019.25
2017-10-07T05:17:09.418Z,1019.24
2017-10-07T05:18:09.440Z,1019.21
2017-10-07T05:19:10.199Z,1019.23
2017-10-07T05:20:09.525Z,1019.18
2017-10-07T05:21:10.450Z,1019.19
2017-10-07T05:22:09.673Z,1019.20
2017-10-07T05:23:09.962Z,1019.17
2017-10-07T05:24:55.650Z,1019.19
2017-10-07T05:27:47.358Z,1019.16
2017-10-07T05:28:47.947Z,1019.17
2017-10-07T05:30:11.020Z,1019.15
2017-10-07T05:31:33.799Z,1019.09
2017-10-07T05:32:34.052Z,1019.06
2017-10-07T05:33:56.713Z,1019.08
2017-10-07T05:35:43.450Z,1019.04
2017-10-07T05:36:43.741Z,1019.04
2017-10-07T05:37:44.469Z,1019.03
2017-10-07T05:38:44.101Z,1018.99
2017-10-07T05:39:43.945Z,1018.98
2017-10-07T05:41:06.104Z,1018.91
2017-10-07T05:42:29.510Z,1018.85
2017-10-07T05:43:52.545Z,1018.84
2017-10-07T05:45:15.217Z,1018.82
2017-10-07T05:46:16.110Z,1018.76
2017-10-07T05:47:38.527Z,1018.79
2017-10-07T05:48:39.307Z,1018.77
2017-10-07T05:49:38.449Z,1018.77
2017-10-07T05:50:39.076Z,1018.74
2017-10-07T05:52:01.100Z,1018.75
2017-10-07T05:53:01.360Z,1018.71
2017-10-07T05:54:01.933Z,1018.74
2017-10-07T05:55:01.275Z,1018.71
2017-10-07T05:56:24.656Z,1018.69
2017-10-07T05:58:09.966Z,1018.67
2017-10-07T05:59:10.587Z,1018.65
2017-10-07T06:00:10.237Z,1018.62
2017-10-07T06:01:33.283Z,1018.63
2017-10-07T06:02:33.741Z,1018.62
2017-10-07T06:03:56.344Z,1018.68
2017-10-07T06:04:57.004Z,1018.63
2017-10-07T06:05:56.791Z,1018.65
2017-10-07T06:06:58.199Z,1018.59
2017-10-07T06:08:19.573Z,1018.56
2017-10-07T06:09:43.539Z,1018.36
2017-10-07T06:11:29.182Z,1018.55
2017-10-07T06:12:29.781Z,1018.53
2017-10-07T06:13:30.511Z,1018.48
2017-10-07T06:14:29.301Z,1018.51
2017-10-07T06:15:52.157Z,1018.45
2017-10-07T06:16:52.750Z,1018.52
2017-10-07T06:17:53.314Z,1018.43
2017-10-07T06:18:52.538Z,1018.44
2017-10-07T06:20:15.739Z,1018.44
2017-10-07T06:22:01.102Z,1018.43
2017-10-07T06:23:01.853Z,1018.46
2017-10-07T06:24:01.403Z,1018.51
2017-10-07T06:25:24.596Z,1018.40
2017-10-07T06:26:25.119Z,1018.45
2017-10-07T06:27:24.988Z,1018.48
2017-10-07T06:28:25.047Z,1018.45
2017-10-07T06:29:47.602Z,1018.35
2017-10-07T06:31:11.052Z,1018.39
2017-10-07T06:32:11.296Z,1018.34
2017-10-07T06:33:57.208Z,1018.31
2017-10-07T06:34:56.844Z,1018.35
2017-10-07T06:35:58.118Z,1018.29
2017-10-07T06:37:19.763Z,1018.23
2017-10-07T06:39:50.162Z,1018.17
2017-10-07T06:40:50.851Z,1018.19
2017-10-07T06:43:43.624Z,1018.15
2017-10-07T06:44:43.882Z,1018.14
2017-10-07T06:46:06.894Z,1018.10
2017-10-07T06:47:29.924Z,1018.08
2017-10-07T06:48:30.867Z,1018.07
2017-10-07T06:49:30.790Z,1018.07
2017-10-07T06:50:34.593Z,1018.04
2017-10-07T06:51:54.641Z,1017.97
2017-10-07T06:53:17.305Z,1017.95
2017-10-07T06:54:41.076Z,1017.93
2017-10-07T06:55:41.657Z,1017.87
2017-10-07T06:57:49.062Z,1017.83
2017-10-07T06:58:49.638Z,1017.83
2017-10-07T06:59:49.307Z,1017.84
2017-10-07T07:00:48.758Z,1017.88
2017-10-07T07:02:12.867Z,1017.82
2017-10-07T07:03:35.624Z,1017.84
2017-10-07T07:04:58.743Z,1017.80
2017-10-07T07:05:59.753Z,1017.80
2017-10-07T07:06:59.408Z,1017.82
2017-10-07T07:07:58.708Z,1017.68
2017-10-07T07:09:21.903Z,1017.71
2017-10-07T07:10:22.233Z,1017.72
2017-10-07T07:11:21.603Z,1017.71
2017-10-07T07:12:23.054Z,1017.68
2017-10-07T07:14:07.384Z,1017.64
2017-10-07T07:15:53.607Z,1017.68
2017-10-07T07:17:16.347Z,1017.66
2017-10-07T07:18:39.867Z,1017.67
2017-10-07T07:19:40.144Z,1017.65
2017-10-07T07:21:03.486Z,1017.60
2017-10-07T07:22:04.104Z,1017.59
2017-10-07T07:23:03.695Z,1017.57
2017-10-07T07:24:03.292Z,1017.54
2017-10-07T07:25:03.729Z,1017.57
2017-10-07T07:27:11.424Z,1017.51
2017-10-07T07:28:12.015Z,1017.50
2017-10-07T07:29:56.990Z,1017.55
2017-10-07T07:30:57.442Z,1017.54
2017-10-07T07:31:58.114Z,1017.50
2017-10-07T07:32:57.847Z,1017.55
2017-10-07T07:34:21.383Z,1017.51
2017-10-07T07:36:05.964Z,1017.39
2017-10-07T07:37:50.582Z,1017.37
2017-10-07T07:38:51.111Z,1017.40
2017-10-07T07:39:50.968Z,1017.34
2017-10-07T07:40:50.767Z,1017.35
2017-10-07T07:41:51.479Z,1017.35
2017-10-07T07:43:13.710Z,1017.39
2017-10-07T07:44:14.625Z,1017.36
2017-10-07T07:45:14.773Z,1017.37
2017-10-07T07:46:14.346Z,1017.31
2017-10-07T07:47:14.607Z,1017.29
2017-10-07T07:48:14.098Z,1017.23
2017-10-07T07:49:14.070Z,1017.25
2017-10-07T07:50:38.311Z,1017.18
2017-10-07T07:51:59.535Z,1017.19
2017-10-07T07:53:00.405Z,1017.20
2017-10-07T07:54:22.547Z,1017.23
2017-10-07T07:55:23.844Z,1017.16
2017-10-07T07:57:31.765Z,1017.21
2017-10-07T07:58:31.324Z,1017.20
2017-10-07T07:59:31.978Z,1017.20
2017-10-07T08:00:31.890Z,1017.16
2017-10-07T08:01:32.005Z,1017.15
2017-10-07T08:05:32.927Z,1017.12
2017-10-07T08:06:56.556Z,1017.12
2017-10-07T08:07:57.133Z,1017.11
2017-10-07T08:09:42.226Z,1017.09
2017-10-07T08:11:04.166Z,1017.02
2017-10-07T08:12:05.485Z,1017.03
2017-10-07T08:13:04.865Z,1016.99
2017-10-07T08:14:04.491Z,1016.92
2017-10-07T08:15:28.073Z,1016.94
2017-10-07T08:17:38.151Z,1016.88
2017-10-07T08:18:38.793Z,1016.83
2017-10-07T08:20:01.296Z,1016.74
2017-10-07T08:21:02.077Z,1016.74
2017-10-07T08:23:54.930Z,1016.66
2017-10-07T08:25:18.173Z,1016.71
2017-10-07T08:26:18.956Z,1016.64
2017-10-07T08:27:18.703Z,1016.62
2017-10-07T08:28:18.523Z,1016.59
2017-10-07T08:29:18.758Z,1016.51
2017-10-07T08:30:18.561Z,1016.61
2017-10-07T08:31:41.785Z,1016.55
2017-10-07T08:33:04.864Z,1016.52
2017-10-07T08:34:50.566Z,1016.51
2017-10-07T08:35:50.952Z,1016.47
2017-10-07T08:36:50.664Z,1016.52
2017-10-07T08:37:51.021Z,1016.54
2017-10-07T08:38:50.604Z,1016.46
2017-10-07T08:39:52.715Z,1016.49
2017-10-07T08:41:13.484Z,1016.48
2017-10-07T08:42:58.883Z,1016.47
2017-10-07T08:44:25.201Z,1016.46
2017-10-07T08:45:49.180Z,1016.36
2017-10-07T08:46:49.939Z,1016.37
2017-10-07T08:48:12.081Z,1016.30
2017-10-07T08:49:12.114Z,1016.22
2017-10-07T08:50:12.821Z,1016.19
2017-10-07T08:51:35.984Z,1016.25
2017-10-07T08:52:37.089Z,1016.18
2017-10-07T08:55:29.412Z,1016.27
2017-10-07T08:57:15.150Z,1016.13
2017-10-07T08:58:15.964Z,1016.14
2017-10-07T08:59:15.887Z,1016.06
2017-10-07T09:00:14.893Z,1015.85
2017-10-07T09:01:38.181Z,1016.09
2017-10-07T09:02:38.649Z,1016.04
2017-10-07T09:03:38.736Z,1016.13
2017-10-07T09:04:39.075Z,1016.10
2017-10-07T09:06:02.424Z,1016.10
2017-10-07T09:07:26.069Z,1016.06
2017-10-07T09:08:48.906Z,1016.09
2017-10-07T09:10:12.788Z,1016.11
2017-10-07T09:11:13.488Z,1016.06
2017-10-07T09:12:13.907Z,1016.08
2017-10-07T09:13:12.311Z,1016.07
2017-10-07T09:14:57.957Z,1016.08
2017-10-07T09:15:59.084Z,1016.08
2017-10-07T09:18:51.963Z,1016.07
2017-10-07T09:19:52.971Z,1016.01
2017-10-07T09:22:01.363Z,1016.00
2017-10-07T09:23:02.206Z,1015.98
2017-10-07T09:24:24.574Z,1015.98
2017-10-07T09:26:15.665Z,1015.88
2017-10-07T09:28:00.552Z,1015.94
2017-10-07T09:29:26.147Z,1015.96
2017-10-07T09:30:49.438Z,1015.96
2017-10-07T09:31:50.142Z,1015.98
2017-10-07T09:33:12.088Z,1015.97
2017-10-07T09:34:12.745Z,1016.03
2017-10-07T09:35:12.669Z,1016.04
2017-10-07T09:36:12.407Z,1016.05
2017-10-07T09:37:12.324Z,1016.01
2017-10-07T09:38:58.716Z,1016.08
2017-10-07T09:40:00.970Z,1016.10
2017-10-07T09:40:58.885Z,1016.08
2017-10-07T09:41:59.638Z,1016.11
2017-10-07T09:44:08.499Z,1016.00
2017-10-07T09:47:50.078Z,1015.84
2017-10-07T09:49:13.307Z,1015.81
2017-10-07T09:50:14.532Z,1015.83
2017-10-07T09:51:36.291Z,1015.78
2017-10-07T09:52:36.960Z,1015.83
2017-10-07T09:53:36.839Z,1015.80
2017-10-07T09:55:22.143Z,1015.73
2017-10-07T09:56:44.540Z,1015.65
2017-10-07T09:57:44.446Z,1015.59
2017-10-07T09:58:45.506Z,1015.52
2017-10-07T10:01:39.031Z,1015.41
2017-10-07T10:02:39.167Z,1015.43
2017-10-07T10:03:39.228Z,1015.33
2017-10-07T10:04:40.363Z,1015.34
2017-10-07T10:05:39.415Z,1015.31
2017-10-07T10:06:39.357Z,1015.26
2017-10-07T10:07:39.247Z,1015.30
2017-10-07T10:08:39.113Z,1015.28
2017-10-07T10:09:39.460Z,1015.23
2017-10-07T10:11:02.750Z,1015.18
2017-10-07T10:12:24.402Z,1015.20
2017-10-07T10:14:10.183Z,1015.20
2017-10-07T10:15:56.520Z,1015.25
2017-10-07T10:17:43.981Z,1015.23
2017-10-07T10:19:07.246Z,1015.16
2017-10-07T10:21:14.841Z,1015.15
2017-10-07T10:22:17.033Z,1015.18
2017-10-07T10:24:00.516Z,1015.13
2017-10-07T10:25:23.244Z,1015.05
2017-10-07T10:26:45.284Z,1015.04
2017-10-07T10:27:46.827Z,1014.99
2017-10-07T10:28:45.738Z,1015.05
2017-10-07T10:29:46.201Z,1014.97
2017-10-07T10:31:55.765Z,1014.97
2017-10-07T10:33:19.700Z,1014.98
2017-10-07T10:34:42.921Z,1014.98
2017-10-07T10:35:43.232Z,1014.95
2017-10-07T10:37:05.720Z,1014.98
2017-10-07T10:38:30.565Z,1014.96
2017-10-07T10:39:29.347Z,1014.92
2017-10-07T10:40:29.896Z,1014.91
2017-10-07T10:41:30.853Z,1014.96
2017-10-07T10:42:30.463Z,1014.95
2017-10-07T10:44:15.203Z,1014.94
2017-10-07T10:45:15.025Z,1014.89
2017-10-07T10:46:38.187Z,1014.84
2017-10-07T10:47:47.381Z,1014.90
2017-10-07T10:48:38.672Z,1014.83
2017-10-07T10:49:59.784Z,1014.77
2017-10-07T10:51:00.607Z,1014.74
2017-10-07T10:52:00.476Z,1014.71
2017-10-07T10:53:00.205Z,1014.73
2017-10-07T10:54:23.198Z,1014.69
2017-10-07T10:55:23.799Z,1014.71
2017-10-07T10:57:31.500Z,1014.67
2017-10-07T10:59:39.781Z,1014.61
2017-10-07T11:01:02.652Z,1014.63
2017-10-07T11:02:03.201Z,1014.62
2017-10-07T11:04:33.778Z,1014.54
2017-10-07T11:06:18.819Z,1014.50
2017-10-07T11:07:42.210Z,1014.52
2017-10-07T11:09:05.596Z,1014.48
2017-10-07T11:10:05.638Z,1014.40
2017-10-07T11:11:05.851Z,1014.40
2017-10-07T11:12:05.956Z,1014.34
2017-10-07T11:13:07.982Z,1014.31
2017-10-07T11:14:06.304Z,1014.43
2017-10-07T11:15:30.173Z,1014.31
2017-10-07T11:16:52.565Z,1014.31
2017-10-07T11:17:53.453Z,1014.26
2017-10-07T11:18:53.981Z,1014.27
2017-10-07T11:19:52.867Z,1014.26
2017-10-07T11:20:53.128Z,1014.35
2017-10-07T11:21:53.733Z,1014.19
2017-10-07T11:22:53.084Z,1014.17
2017-10-07T11:23:53.037Z,1014.14
2017-10-07T11:24:53.198Z,1014.21
2017-10-07T11:26:15.976Z,1014.14
2017-10-07T11:28:03.063Z,1014.09
2017-10-07T11:29:05.019Z,1014.09
2017-10-07T11:30:26.654Z,1014.03
2017-10-07T11:31:26.947Z,1014.07
2017-10-07T11:33:12.782Z,1014.08
2017-10-07T11:34:57.445Z,1014.04
2017-10-07T11:35:58.534Z,1013.99
2017-10-07T11:38:06.545Z,1013.93
2017-10-07T11:40:17.654Z,1013.86
2017-10-07T11:40:48.377Z,1013.85
2017-10-07T11:41:30.730Z,1013.81
2017-10-07T11:42:31.492Z,1013.81
2017-10-07T11:43:53.609Z,1013.78
2017-10-07T11:44:55.488Z,1013.73
2017-10-07T11:45:54.410Z,1013.73
2017-10-07T11:46:54.494Z,1013.77
2017-10-07T11:47:54.857Z,1013.72
2017-10-07T11:49:16.589Z,1013.79
2017-10-07T11:50:39.847Z,1013.69
2017-10-07T11:52:02.069Z,1013.65
2017-10-07T11:53:03.040Z,1013.54
2017-10-07T11:54:50.945Z,1013.57
2017-10-07T11:56:14.072Z,1013.50
2017-10-07T11:57:15.004Z,1013.42
2017-10-07T11:58:14.778Z,1013.45
2017-10-07T11:59:14.935Z,1013.47
2017-10-07T12:00:15.656Z,1013.38
2017-10-07T12:03:11.825Z,1013.21
2017-10-07T12:04:12.699Z,1013.24
2017-10-07T12:05:13.570Z,1013.27
2017-10-07T12:06:12.378Z,1013.12
2017-10-07T12:07:59.399Z,1013.17
2017-10-07T12:09:45.698Z,1013.23
2017-10-07T12:11:08.822Z,1013.24
2017-10-07T12:13:42.777Z,1013.23
2017-10-07T12:14:43.238Z,1013.11
2017-10-07T12:15:42.012Z,1013.23
2017-10-07T12:17:05.450Z,1013.17
2017-10-07T12:18:28.691Z,1013.10
2017-10-07T12:21:23.704Z,1013.09
2017-10-07T12:22:24.127Z,1013.05
2017-10-07T12:23:24.009Z,1013.08
2017-10-07T12:25:08.388Z,1012.76
2017-10-07T12:26:09.211Z,1012.96
2017-10-07T12:27:31.250Z,1012.95
2017-10-07T12:28:33.991Z,1012.89
2017-10-07T12:29:32.323Z,1012.91
2017-10-07T12:30:33.332Z,1012.85
2017-10-07T12:31:30.871Z,1012.88
2017-10-07T12:32:54.253Z,1012.84
2017-10-07T12:33:55.115Z,1012.89
2017-10-07T12:34:54.027Z,1012.89
2017-10-07T12:35:57.138Z,1012.84
2017-10-07T12:37:40.736Z,1012.79
2017-10-07T12:39:48.088Z,1012.77
2017-10-07T12:41:11.177Z,1012.68
2017-10-07T12:43:18.919Z,1012.74
2017-10-07T12:44:19.624Z,1012.77
2017-10-07T12:46:49.895Z,1012.55
2017-10-07T12:47:50.417Z,1012.54
2017-10-07T12:48:50.219Z,1012.49
2017-10-07T12:53:12.085Z,1012.45
2017-10-07T12:54:12.567Z,1012.36
2017-10-07T12:55:13.332Z,1012.27
2017-10-07T12:56:12.097Z,1012.26
2017-10-07T12:57:14.030Z,1012.28
2017-10-07T12:58:35.084Z,1012.20
2017-10-07T12:59:35.463Z,1012.22
2017-10-07T13:00:57.969Z,1012.20
2017-10-07T13:01:58.828Z,1012.13
2017-10-07T13:03:21.136Z,1012.10
2017-10-07T13:04:22.238Z,1012.05
2017-10-07T13:05:44.526Z,1011.95
2017-10-07T13:06:45.345Z,1012.02
2017-10-07T13:07:45.587Z,1011.98
2017-10-07T13:08:45.050Z,1011.96
2017-10-07T13:10:51.724Z,1011.99
2017-10-07T13:11:51.465Z,1011.92
2017-10-07T13:13:15.330Z,1011.97
2017-10-07T13:14:15.524Z,1011.96
2017-10-07T13:15:15.263Z,1011.96
2017-10-07T13:16:15.861Z,1011.78
2017-10-07T13:17:15.393Z,1011.73
2017-10-07T13:19:24.040Z,1011.81
2017-10-07T13:20:22.915Z,1011.78
2017-10-07T13:21:22.633Z,1011.79
2017-10-07T13:22:22.583Z,1011.78
2017-10-07T13:24:30.957Z,1011.74
2017-10-07T13:26:17.060Z,1011.74
2017-10-07T13:27:16.721Z,1011.74
2017-10-07T13:28:16.207Z,1011.64
2017-10-07T13:29:16.665Z,1011.58
2017-10-07T13:30:17.111Z,1011.59
2017-10-07T13:32:02.331Z,1011.60
2017-10-07T13:33:02.716Z,1011.68
2017-10-07T13:34:25.235Z,1011.61
2017-10-07T13:36:35.023Z,1011.48
2017-10-07T13:38:19.789Z,1011.56
2017-10-07T13:40:28.703Z,1011.54
2017-10-07T13:41:28.572Z,1011.49
2017-10-07T13:42:51.275Z,1011.41
2017-10-07T13:43:52.519Z,1011.49
2017-10-07T13:48:16.228Z,1011.54
2017-10-07T13:49:17.100Z,1011.46
2017-10-07T13:52:32.488Z,1011.40
2017-10-07T13:55:05.876Z,1011.26
2017-10-07T13:56:06.548Z,1011.26
2017-10-07T13:57:06.280Z,1011.25
2017-10-07T13:58:06.610Z,1011.20
2017-10-07T13:59:53.664Z,1011.17
2017-10-07T14:00:55.392Z,1011.19
2017-10-07T14:02:20.907Z,1011.31
2017-10-07T14:03:22.885Z,1011.30
2017-10-07T14:04:21.363Z,1011.26
2017-10-07T14:05:28.552Z,1011.21
2017-10-07T14:06:22.798Z,1011.13
2017-10-07T14:07:45.558Z,1011.14
2017-10-07T14:09:42.114Z,1011.12
2017-10-07T14:11:29.605Z,1011.13
2017-10-07T14:12:30.581Z,1011.15
2017-10-07T14:14:16.707Z,1011.20
2017-10-07T14:15:17.169Z,1011.18
2017-10-07T14:16:17.701Z,1011.07
2017-10-07T14:17:41.799Z,1011.14
2017-10-07T14:18:42.707Z,1011.13
2017-10-07T14:20:30.815Z,1011.16
2017-10-07T14:21:31.635Z,1011.13
2017-10-07T14:22:30.503Z,1011.13
2017-10-07T14:23:55.465Z,1011.08
2017-10-07T14:24:56.335Z,1011.00
2017-10-07T14:26:44.755Z,1011.07
2017-10-07T14:28:07.828Z,1011.11
2017-10-07T14:29:08.521Z,1011.08
2017-10-07T14:30:08.089Z,1011.08
2017-10-07T14:31:55.210Z,1011.00
2017-10-07T14:32:55.032Z,1011.03
2017-10-07T14:33:55.801Z,1010.97
2017-10-07T14:34:55.818Z,1010.98
2017-10-07T14:35:55.556Z,1011.05
2017-10-07T14:38:25.705Z,1010.88
2017-10-07T14:39:26.688Z,1010.97
2017-10-07T14:41:57.151Z,1010.90
2017-10-07T14:42:57.759Z,1010.88
2017-10-07T14:43:57.616Z,1010.84
2017-10-07T14:44:57.966Z,1010.89
2017-10-07T14:47:05.612Z,1010.84
2017-10-07T14:48:05.360Z,1010.83
2017-10-07T14:49:06.033Z,1010.83
2017-10-07T14:51:15.353Z,1010.83
2017-10-07T14:52:16.403Z,1010.76
2017-10-07T14:54:01.717Z,1010.80
2017-10-07T14:56:33.120Z,1010.82
2017-10-07T14:57:34.208Z,1010.80
2017-10-07T14:59:17.527Z,1010.79
2017-10-07T15:00:18.118Z,1010.81
2017-10-07T15:02:03.269Z,1010.84
2017-10-07T15:03:25.678Z,1010.76
2017-10-07T15:05:09.885Z,1010.81
2017-10-07T15:06:33.171Z,1010.76
2017-10-07T15:09:06.729Z,1010.78
2017-10-07T15:10:09.357Z,1010.73
2017-10-07T15:12:17.314Z,1010.71
2017-10-07T15:13:22.322Z,1010.76
2017-10-07T15:14:40.753Z,1010.72
2017-10-07T15:15:41.603Z,1010.75
2017-10-07T15:21:36.192Z,1010.66
2017-10-07T15:22:36.275Z,1010.65
2017-10-07T15:23:37.390Z,1010.69
2017-10-07T15:24:58.610Z,1010.66
2017-10-07T15:26:00.197Z,1010.61
2017-10-07T15:26:59.122Z,1010.60
2017-10-07T15:28:44.330Z,1010.52
2017-10-07T15:29:45.584Z,1010.54
2017-10-07T15:31:07.597Z,1010.49
2017-10-07T15:32:08.359Z,1010.61
2017-10-07T15:33:08.049Z,1010.54
2017-10-07T15:35:15.734Z,1010.54
2017-10-07T15:36:15.789Z,1010.50
2017-10-07T15:37:17.770Z,1010.45
2017-10-07T15:38:38.802Z,1010.43
2017-10-07T15:39:39.247Z,1010.32
2017-10-07T15:40:39.047Z,1010.42
2017-10-07T15:42:01.787Z,1010.34
2017-10-07T15:44:10.199Z,1010.35
2017-10-07T15:46:20.011Z,1010.33